Time;durP1;ratioP1;P1;durP2;ratioP2;P2;SDS_P1;SDS_P2;PMS_P1;PMS_P2;Temp;Humidity;BMP_temperature;BMP_pressure;BME280_temperature;BME280_humidity;BME280_pressure;Samples;Min_cycle;Max_cycle;Signal;HPM_P1;HPM_P2
2022/07/17 00:00:36;;;;;;;1.48;1.08;;;;;;;17.38;54.07;99463.03;4098126;28;20281;-54
2022/07/17 00:02:38;;;;;;;6.18;1.13;;;;;;;17.40;54.26;99469.09;4116901;28;20202;-54
2022/07/17 00:04:40;;;;;;;0.98;0.98;;;;;;;17.43;54.14;99465.78;4097444;28;20576;-54
2022/07/17 00:06:41;;;;;;;3.80;1.15;;;;;;;17.47;54.10;99461.38;4099391;28;20614;-53
2022/07/17 00:08:43;;;;;;;2.30;1.13;;;;;;;17.46;54.11;99459.72;4111469;28;20202;-54
2022/07/17 00:10:45;;;;;;;2.05;1.08;;;;;;;17.41;54.43;99468.84;4080799;28;20686;-56
2022/07/17 00:12:47;;;;;;;2.78;1.20;;;;;;;17.39;54.40;99471.03;4100808;28;20207;-54
2022/07/17 00:14:49;;;;;;;1.10;1.08;;;;;;;17.39;54.49;99459.97;4113700;28;20292;-56
2022/07/17 00:16:53;;;;;;;0.90;0.90;;;;;;;17.28;55.02;99463.78;4096866;28;20489;-53
2022/07/17 00:18:58;;;;;;;1.58;1.15;;;;;;;17.27;55.00;99452.97;4093721;28;20234;-55
2022/07/17 00:21:00;;;;;;;0.93;0.93;;;;;;;17.27;55.00;99455.72;4113412;28;20612;-56
2022/07/17 00:23:02;;;;;;;2.28;1.42;;;;;;;17.23;54.88;99460.97;4116151;28;20214;-55
2022/07/17 00:25:04;;;;;;;3.22;1.85;;;;;;;17.26;55.00;99459.59;4094207;28;20277;-54
2022/07/17 00:27:06;;;;;;;1.48;1.25;;;;;;;17.24;54.91;99459.03;4098174;28;20269;-54
2022/07/17 00:29:08;;;;;;;2.50;1.73;;;;;;;17.26;54.81;99454.88;4095193;28;20203;-55
2022/07/17 00:31:10;;;;;;;2.63;1.70;;;;;;;17.26;54.80;99456.84;4096335;28;20793;-55
2022/07/17 00:33:12;;;;;;;2.55;2.15;;;;;;;17.23;55.00;99454.59;4098630;28;20265;-54
2022/07/17 00:35:13;;;;;;;1.95;1.48;;;;;;;17.20;54.97;99457.91;4101242;28;20289;-56
2022/07/17 00:37:20;;;;;;;3.45;2.00;;;;;;;17.17;55.23;99451.00;4102128;28;20215;-56
2022/07/17 00:39:23;;;;;;;3.08;1.55;;;;;;;17.13;55.43;99460.91;4103031;28;20231;-55
2022/07/17 00:41:25;;;;;;;1.55;1.23;;;;;;;17.14;55.37;99454.31;4119713;28;20566;-56
2022/07/17 00:43:27;;;;;;;2.00;1.40;;;;;;;17.13;55.38;99454.56;4123615;28;20203;-56
2022/07/17 00:45:29;;;;;;;1.85;1.35;;;;;;;17.06;55.48;99451.22;4103020;28;20218;-56
2022/07/17 00:47:31;;;;;;;3.97;1.73;;;;;;;16.97;55.60;99450.03;4098119;28;20266;-56
2022/07/17 00:49:33;;;;;;;2.17;1.20;;;;;;;16.89;55.98;99452.50;4097247;28;20226;-56
2022/07/17 00:51:35;;;;;;;1.88;1.20;;;;;;;16.80;56.13;99454.94;4115302;28;20211;-57
2022/07/17 00:53:39;;;;;;;1.48;1.35;;;;;;;16.70;56.44;99451.28;4100360;28;20710;-55
2022/07/17 00:55:42;;;;;;;1.50;1.20;;;;;;;16.62;56.58;99449.84;4098111;28;20334;-57
2022/07/17 00:57:47;;;;;;;1.25;0.98;;;;;;;15.93;57.74;99447.28;4096362;28;20207;-57
2022/07/17 00:59:49;;;;;;;1.15;1.05;;;;;;;15.81;57.87;99444.69;4093214;28;20686;-57
2022/07/17 01:01:51;;;;;;;2.15;1.95;;;;;;;15.86;57.76;99447.53;4081624;28;20271;-56
2022/07/17 01:03:54;;;;;;;2.55;1.33;;;;;;;15.95;57.68;99445.94;4095713;28;20289;-57
2022/07/17 01:05:56;;;;;;;1.95;1.10;;;;;;;16.08;57.28;99445.50;4096631;28;20215;-57
2022/07/17 01:07:57;;;;;;;1.15;1.10;;;;;;;16.13;57.01;99448.31;4100353;28;20255;-57
2022/07/17 01:09:59;;;;;;;1.55;0.95;;;;;;;16.20;56.78;99448.94;4112797;28;20230;-55
2022/07/17 01:12:01;;;;;;;2.50;1.50;;;;;;;16.23;57.00;99456.69;4115176;28;20260;-55
2022/07/17 01:14:03;;;;;;;1.00;1.00;;;;;;;15.90;57.69;99456.13;4108453;28;20211;-56
2022/07/17 01:16:05;;;;;;;1.27;1.17;;;;;;;15.88;57.78;99456.38;4102108;28;20747;-55
2022/07/17 01:18:10;;;;;;;1.40;1.30;;;;;;;15.97;57.44;99460.31;4099673;28;20218;-56
2022/07/17 01:20:12;;;;;;;1.50;1.23;;;;;;;16.02;57.37;99460.38;4102552;28;20306;-55
2022/07/17 01:22:14;;;;;;;2.22;1.30;;;;;;;16.06;57.26;99464.28;4110407;28;20273;-56
2022/07/17 01:24:16;;;;;;;1.00;0.90;;;;;;;16.12;57.22;99462.38;4103867;28;20215;-56
2022/07/17 01:26:18;;;;;;;1.98;1.50;;;;;;;15.93;57.91;99464.72;4112061;28;20211;-55
2022/07/17 01:28:20;;;;;;;1.65;1.08;;;;;;;15.85;58.18;99467.09;4115780;28;20207;-54
2022/07/17 01:30:22;;;;;;;2.05;1.40;;;;;;;15.79;58.12;99466.22;4105396;28;20230;-55
2022/07/17 01:32:37;;;;;;;4.05;1.65;;;;;;;15.86;58.00;99460.47;4119188;28;20210;-57
2022/07/17 01:34:39;;;;;;;1.90;1.35;;;;;;;15.90;57.71;99470.72;4102595;28;20235;-55
2022/07/17 01:36:41;;;;;;;1.40;1.20;;;;;;;15.92;57.82;99456.69;4120607;28;20214;-54
2022/07/17 01:38:43;;;;;;;2.33;1.00;;;;;;;15.90;57.69;99458.88;4105886;28;20231;-57
2022/07/17 01:40:45;;;;;;;2.60;1.58;;;;;;;15.89;57.75;99454.44;4108349;28;20233;-56
2022/07/17 01:42:49;;;;;;;1.30;1.15;;;;;;;15.85;57.78;99456.91;4111552;28;20210;-55
2022/07/17 01:44:52;;;;;;;1.70;1.30;;;;;;;15.78;58.32;99463.72;4102442;28;20242;-54
2022/07/17 01:46:53;;;;;;;2.78;1.35;;;;;;;15.71;58.35;99452.88;4106677;28;20895;-55
2022/07/17 01:48:55;;;;;;;1.33;1.15;;;;;;;15.65;58.55;99458.59;4111014;28;20686;-54
2022/07/17 01:50:57;;;;;;;2.05;1.30;;;;;;;15.63;58.58;99455.28;4109475;28;20722;-56
2022/07/17 01:52:58;;;;;;;1.42;0.90;;;;;;;15.64;58.35;99457.75;4109610;28;20223;-55
2022/07/17 01:55:00;;;;;;;3.13;1.65;;;;;;;15.65;58.61;99450.31;4106310;28;20583;-56
2022/07/17 01:57:02;;;;;;;1.02;0.98;;;;;;;15.66;58.37;99447.31;4122889;28;20626;-56
2022/07/17 01:59:04;;;;;;;1.88;1.55;;;;;;;15.68;58.45;99447.03;4109746;28;20232;-55
2022/07/17 02:01:05;;;;;;;2.28;1.25;;;;;;;15.64;58.48;99454.19;4093693;28;20210;-57
2022/07/17 02:03:07;;;;;;;1.50;1.20;;;;;;;15.66;58.43;99447.31;4109791;28;20234;-56
2022/07/17 02:05:09;;;;;;;1.33;1.23;;;;;;;15.49;58.96;99446.56;4116826;28;20302;-56
2022/07/17 02:07:11;;;;;;;2.08;1.30;;;;;;;15.53;58.50;99444.97;4107390;28;20199;-55
2022/07/17 02:09:13;;;;;;;1.85;1.40;;;;;;;15.47;58.91;99442.41;4095357;28;20203;-55
2022/07/17 02:11:15;;;;;;;1.63;1.35;;;;;;;15.28;59.31;99439.13;4111575;28;20269;-55
2022/07/17 02:13:16;;;;;;;1.95;1.10;;;;;;;15.28;59.14;99444.63;4094447;28;20235;-54
2022/07/17 02:15:18;;;;;;;1.58;1.40;;;;;;;15.24;59.10;99432.44;4107568;28;20207;-55
2022/07/17 02:17:20;;;;;;;3.83;1.33;;;;;;;15.23;59.09;99438.22;4102898;28;20211;-54
2022/07/17 02:19:22;;;;;;;1.20;1.10;;;;;;;15.26;58.95;99441.31;4103548;28;20273;-56
2022/07/17 02:21:23;;;;;;;1.88;1.75;;;;;;;15.23;59.02;99433.53;4110574;28;20211;-54
2022/07/17 02:23:25;;;;;;;1.50;1.20;;;;;;;15.21;59.12;99438.47;4092977;29;20211;-56
2022/07/17 02:25:27;;;;;;;1.17;1.08;;;;;;;15.19;59.25;99437.91;4102574;28;20222;-54
2022/07/17 02:27:31;;;;;;;2.33;1.48;;;;;;;15.16;59.21;99435.66;4100884;28;20219;-56
2022/07/17 02:29:33;;;;;;;1.70;1.60;;;;;;;15.15;59.20;99436.75;4118305;28;20229;-55
2022/07/17 02:31:34;;;;;;;3.13;1.30;;;;;;;15.14;58.96;99437.84;4101815;28;20212;-58
2022/07/17 02:33:36;;;;;;;1.77;1.55;;;;;;;15.15;58.94;99442.25;4120381;28;20669;-56
2022/07/17 02:35:39;;;;;;;2.47;1.50;;;;;;;15.18;59.05;99441.78;4107943;28;20261;-56
2022/07/17 02:37:42;;;;;;;2.40;1.42;;;;;;;15.20;58.96;99441.50;4103502;28;20210;-55
2022/07/17 02:39:53;;;;;;;1.73;1.30;;;;;;;15.23;59.09;99441.81;4120141;28;20234;-57
2022/07/17 02:41:54;;;;;;;1.88;1.33;;;;;;;15.22;59.16;99440.16;4102631;28;20211;-56
2022/07/17 02:43:56;;;;;;;3.47;1.85;;;;;;;15.23;59.26;99441.81;4088344;29;22432;-57
2022/07/17 02:45:58;;;;;;;1.77;1.13;;;;;;;15.23;59.49;99447.31;4105544;28;20597;-58
2022/07/17 02:48:00;;;;;;;1.52;1.40;;;;;;;15.22;59.56;99447.59;4108501;28;20627;-57
2022/07/17 02:50:04;;;;;;;2.30;1.60;;;;;;;15.14;59.71;99448.88;4105626;28;20218;-54
2022/07/17 02:52:05;;;;;;;1.50;1.40;;;;;;;15.11;59.99;99454.88;4119669;28;20254;-57
2022/07/17 02:54:07;;;;;;;2.03;1.40;;;;;;;15.06;60.06;99449.34;4119769;28;20206;-54
2022/07/17 02:56:09;;;;;;;3.35;1.70;;;;;;;15.05;60.54;99455.09;4101829;28;20215;-55
2022/07/17 02:58:11;;;;;;;1.40;1.30;;;;;;;14.95;61.15;99455.78;4118690;28;20552;-57
2022/07/17 03:00:15;;;;;;;1.55;1.45;;;;;;;14.30;62.45;99457.56;4102263;28;20290;-56
2022/07/17 03:02:17;;;;;;;1.75;1.50;;;;;;;14.02;63.20;99454.88;4106600;28;20206;-55
2022/07/17 03:04:19;;;;;;;1.50;1.40;;;;;;;14.06;63.02;99450.53;4117801;28;20234;-56
2022/07/17 03:06:21;;;;;;;1.80;1.60;;;;;;;14.22;62.51;99462.69;4108974;28;20211;-55
2022/07/17 03:08:23;;;;;;;1.65;1.42;;;;;;;14.32;61.91;99452.66;4116728;28;20837;-56
2022/07/17 03:10:25;;;;;;;2.22;1.80;;;;;;;14.41;61.60;99453.91;4104047;28;20235;-57
2022/07/17 03:12:27;;;;;;;1.58;1.48;;;;;;;14.44;61.86;99458.88;4106233;28;20211;-54
2022/07/17 03:14:29;;;;;;;1.60;1.50;;;;;;;14.41;61.67;99455.78;4109356;28;20257;-58
2022/07/17 03:16:31;;;;;;;1.27;1.17;;;;;;;14.38;61.86;99448.88;4103976;28;20222;-55
2022/07/17 03:18:32;;;;;;;1.50;1.40;;;;;;;14.24;62.49;99446.72;4109771;28;20601;-55
2022/07/17 03:20:34;;;;;;;2.35;1.50;;;;;;;14.30;62.12;99452.06;4102191;28;20269;-55
2022/07/17 03:22:39;;;;;;;3.55;1.60;;;;;;;14.34;61.83;99456.00;4102203;28;20690;-56
2022/07/17 03:24:41;;;;;;;2.03;1.67;;;;;;;14.30;62.00;99452.06;4106863;28;20206;-54
2022/07/17 03:26:43;;;;;;;3.15;1.33;;;;;;;14.27;62.15;99449.81;4102438;28;20726;-56
2022/07/17 03:28:44;;;;;;;1.90;1.42;;;;;;;14.27;62.01;99444.31;4109031;28;20674;-57
2022/07/17 03:30:46;;;;;;;1.48;1.38;;;;;;;14.25;62.05;99449.25;4120079;28;20268;-56
2022/07/17 03:32:48;;;;;;;2.53;1.77;;;;;;;14.26;61.84;99445.41;4105831;28;20210;-57
2022/07/17 03:34:50;;;;;;;1.73;1.23;;;;;;;14.26;61.71;99450.06;4106325;28;20199;-54
2022/07/17 03:36:51;;;;;;;1.70;1.60;;;;;;;14.28;61.73;99451.47;4104537;28;20247;-53
2022/07/17 03:38:53;;;;;;;1.50;1.40;;;;;;;14.29;61.66;99455.91;4118876;28;20224;-55
2022/07/17 03:40:55;;;;;;;2.33;1.38;;;;;;;14.26;61.50;99450.91;4118706;28;20234;-56
2022/07/17 03:42:56;;;;;;;1.52;1.30;;;;;;;14.24;61.92;99457.75;4103458;28;20257;-56
2022/07/17 03:44:58;;;;;;;1.92;1.10;;;;;;;14.25;61.75;99460.25;4106440;28;20252;-54
2022/07/17 03:47:00;;;;;;;1.67;1.58;;;;;;;14.25;61.82;99460.25;4110364;28;20762;-54
2022/07/17 03:49:02;;;;;;;2.30;1.77;;;;;;;14.22;61.86;99455.22;4103774;28;20218;-54
2022/07/17 03:51:04;;;;;;;1.40;1.23;;;;;;;14.14;62.46;99457.53;4106774;28;20222;-54
2022/07/17 03:53:06;;;;;;;1.63;1.52;;;;;;;14.11;62.20;99453.34;4109283;28;20242;-55
2022/07/17 03:55:08;;;;;;;1.50;1.40;;;;;;;14.10;62.32;99457.19;4102887;28;20305;-54
2022/07/17 03:57:10;;;;;;;1.60;1.50;;;;;;;14.06;62.42;99453.28;4104619;28;20633;-53
2022/07/17 03:59:11;;;;;;;2.40;1.58;;;;;;;14.06;62.23;99456.03;4102827;28;20215;-57
2022/07/17 04:01:13;;;;;;;2.22;1.45;;;;;;;14.02;62.73;99465.03;4106484;28;20214;-55
2022/07/17 04:03:15;;;;;;;1.45;1.20;;;;;;;14.00;62.82;99461.69;4103278;28;20207;-54
2022/07/17 04:05:16;;;;;;;1.80;1.52;;;;;;;13.98;62.64;99453.69;4108491;28;20233;-54
2022/07/17 04:07:27;;;;;;;1.83;1.73;;;;;;;13.97;62.68;99457.53;4104536;28;20269;-57
2022/07/17 04:09:29;;;;;;;2.30;1.60;;;;;;;14.01;62.39;99464.22;4103804;28;20227;-54
2022/07/17 04:11:30;;;;;;;2.45;1.58;;;;;;;14.03;62.60;99462.03;4107451;28;20203;-54
2022/07/17 04:13:32;;;;;;;4.18;1.40;;;;;;;13.97;62.55;99463.03;4102603;28;20269;-54
2022/07/17 04:15:49;;;;;;;1.48;1.38;;;;;;;13.99;62.22;99471.03;4107787;28;20643;-56
2022/07/17 04:17:51;;;;;;;1.42;1.08;;;;;;;13.98;62.49;99470.19;4105891;28;20242;-55
2022/07/17 04:19:53;;;;;;;2.78;1.60;;;;;;;13.99;62.30;99469.13;4121204;28;20672;-53
2022/07/17 04:21:54;;;;;;;3.38;1.60;;;;;;;14.01;62.15;99475.22;4104066;28;20297;-54
2022/07/17 04:23:56;;;;;;;2.47;1.80;;;;;;;14.03;62.50;99478.53;4105339;28;20729;-54
2022/07/17 04:25:58;;;;;;;3.28;1.75;;;;;;;14.06;62.56;99478.06;4093797;28;20203;-55
2022/07/17 04:28:00;;;;;;;2.13;1.30;;;;;;;14.04;62.43;99477.47;4104945;28;20259;-54
2022/07/17 04:30:02;;;;;;;1.92;1.67;;;;;;;14.04;62.73;99462.88;4120157;28;20285;-55
2022/07/17 04:32:04;;;;;;;1.98;1.50;;;;;;;14.05;62.79;99479.16;4107209;28;20250;-55
2022/07/17 04:34:06;;;;;;;2.38;2.03;;;;;;;14.03;62.89;99472.22;4109531;28;20214;-56
2022/07/17 04:36:08;;;;;;;1.80;1.42;;;;;;;13.91;63.70;99476.97;4106604;28;20215;-55
2022/07/17 04:38:10;;;;;;;2.55;2.22;;;;;;;13.74;64.20;99479.69;4106560;28;20278;-56
2022/07/17 04:40:12;;;;;;;1.58;1.48;;;;;;;13.85;63.53;99483.44;4109845;28;20230;-56
2022/07/17 04:42:13;;;;;;;2.13;1.80;;;;;;;13.90;63.41;99495.38;4110578;28;20222;-55
2022/07/17 04:44:15;;;;;;;1.73;1.60;;;;;;;13.98;62.93;99503.22;4111292;28;20258;-56
2022/07/17 04:46:17;;;;;;;5.65;1.95;;;;;;;14.00;62.97;99501.06;4108250;28;20257;-56
2022/07/17 04:48:19;;;;;;;1.40;1.30;;;;;;;14.05;63.03;99492.91;4107069;28;20255;-56
2022/07/17 04:50:21;;;;;;;1.75;1.40;;;;;;;14.10;62.94;99495.72;4105204;28;20290;-57
2022/07/17 04:52:22;;;;;;;1.35;1.25;;;;;;;14.14;62.94;99485.91;4103608;28;20204;-57
2022/07/17 04:54:24;;;;;;;2.22;1.83;;;;;;;14.18;62.79;99491.75;4107888;28;20207;-57
2022/07/17 04:56:29;;;;;;;1.40;1.30;;;;;;;14.24;62.99;99491.59;4110491;28;20214;-56
2022/07/17 04:58:31;;;;;;;3.92;1.52;;;;;;;14.25;63.02;99492.44;4100640;28;20215;-56
2022/07/17 05:00:32;;;;;;;1.45;1.35;;;;;;;14.28;62.99;99492.78;4089034;28;20232;-54
2022/07/17 05:02:34;;;;;;;1.20;1.10;;;;;;;14.30;63.10;99492.53;4110502;28;20269;-54
2022/07/17 05:04:36;;;;;;;2.50;1.42;;;;;;;14.35;62.89;99503.63;4110926;28;20211;-54
2022/07/17 05:06:38;;;;;;;2.97;1.85;;;;;;;14.36;63.04;99503.38;4105312;28;20211;-54
2022/07/17 05:08:39;;;;;;;1.40;1.30;;;;;;;14.37;62.76;99507.78;4105072;28;20219;-54
2022/07/17 05:10:41;;;;;;;2.90;1.88;;;;;;;14.47;62.46;99504.38;4102428;28;20236;-54
2022/07/17 05:12:43;;;;;;;1.63;1.35;;;;;;;14.51;62.21;99505.56;4105072;28;20215;-54
2022/07/17 05:14:45;;;;;;;5.20;1.30;;;;;;;14.50;62.15;99514.91;4110039;28;20215;-54
2022/07/17 05:16:46;;;;;;;2.45;1.35;;;;;;;14.60;62.00;99512.31;4107632;28;20318;-54
2022/07/17 05:18:48;;;;;;;1.85;1.48;;;;;;;14.73;62.08;99510.03;4120884;28;20224;-54
2022/07/17 05:20:50;;;;;;;12.55;2.38;;;;;;;14.68;61.76;99517.38;4118439;28;20773;-54
2022/07/17 05:22:52;;;;;;;2.38;1.42;;;;;;;14.77;61.72;99524.97;4107965;28;20214;-54
2022/07/17 05:24:53;;;;;;;1.40;1.20;;;;;;;14.75;61.76;99518.03;4118780;28;20293;-55
2022/07/17 05:26:58;;;;;;;1.55;1.45;;;;;;;14.68;62.25;99523.75;4089848;28;20252;-54
2022/07/17 05:29:00;;;;;;;6.25;1.65;;;;;;;14.78;61.93;99518.41;4103968;28;20262;-54
2022/07/17 05:31:01;;;;;;;1.42;1.33;;;;;;;14.79;61.69;99514.56;4110149;28;20199;-54
2022/07/17 05:33:03;;;;;;;1.33;1.23;;;;;;;14.74;62.21;99519.97;4093604;28;20283;-53
2022/07/17 05:35:05;;;;;;;1.52;1.35;;;;;;;14.89;61.65;99511.94;4109236;28;20270;-54
2022/07/17 05:37:07;;;;;;;1.70;1.20;;;;;;;15.01;61.43;99515.41;4122197;28;20838;-54
2022/07/17 05:39:08;;;;;;;3.00;2.45;;;;;;;15.01;61.56;99518.16;4108911;28;20258;-54
2022/07/17 05:41:10;;;;;;;3.35;1.25;;;;;;;15.10;61.77;99515.81;4122902;28;20230;-54
2022/07/17 05:43:12;;;;;;;2.22;1.23;;;;;;;15.40;61.19;99522.59;4112287;28;20246;-54
2022/07/17 05:45:13;;;;;;;2.58;1.25;;;;;;;15.59;61.07;99515.69;4105391;28;20269;-54
2022/07/17 05:47:15;;;;;;;1.58;1.20;;;;;;;15.76;60.26;99516.41;4106520;28;20305;-53
2022/07/17 05:49:17;;;;;;;1.25;1.08;;;;;;;16.03;59.99;99525.53;4118019;28;20294;-54
2022/07/17 05:51:18;;;;;;;1.20;1.10;;;;;;;16.03;59.35;99520.00;4090487;28;20207;-54
2022/07/17 05:53:27;;;;;;;2.65;1.20;;;;;;;16.46;59.31;99519.91;4102056;28;20226;-53
2022/07/17 05:55:28;;;;;;;1.90;1.08;;;;;;;16.70;58.76;99521.19;4119985;28;20249;-54
2022/07/17 05:57:30;;;;;;;3.13;1.30;;;;;;;16.93;57.81;99509.78;4117065;28;20253;-54
2022/07/17 05:59:32;;;;;;;3.17;1.17;;;;;;;17.15;57.58;99518.75;4120732;28;20234;-54
2022/07/17 06:01:34;;;;;;;3.60;1.20;;;;;;;17.34;57.16;99511.66;4102802;28;20314;-54
2022/07/17 06:03:36;;;;;;;3.92;2.10;;;;;;;17.51;56.31;99521.47;4103367;28;20219;-55
2022/07/17 06:05:37;;;;;;;1.50;0.90;;;;;;;17.51;55.13;99512.34;4111085;28;20203;-54
2022/07/17 06:07:39;;;;;;;1.00;0.95;;;;;;;17.43;54.97;99510.06;4103245;28;20307;-54
2022/07/17 06:09:41;;;;;;;1.77;1.42;;;;;;;17.33;54.89;99515.53;4122529;28;20234;-54
2022/07/17 06:11:42;;;;;;;2.50;1.10;;;;;;;17.30;55.65;99511.38;4103883;28;20256;-54
2022/07/17 06:13:45;;;;;;;1.60;1.08;;;;;;;17.51;56.12;99517.88;4109385;28;20235;-54
2022/07/17 06:15:47;;;;;;;2.45;0.95;;;;;;;17.53;55.91;99515.66;4110087;28;20237;-55
2022/07/17 06:17:49;;;;;;;1.73;0.95;;;;;;;17.75;55.23;99519.91;4111901;28;20238;-55
2022/07/17 06:19:51;;;;;;;3.80;1.08;;;;;;;18.00;54.95;99519.13;4109546;28;20595;-55
2022/07/17 06:21:53;;;;;;;1.98;0.90;;;;;;;18.01;53.63;99515.25;4105176;28;20277;-54
2022/07/17 06:23:55;;;;;;;0.95;0.80;;;;;;;17.73;54.55;99516.56;4108178;28;21015;-54
2022/07/17 06:25:56;;;;;;;2.95;1.00;;;;;;;18.13;54.60;99521.38;4104547;28;20253;-55
2022/07/17 06:27:58;;;;;;;1.55;0.88;;;;;;;18.40;53.72;99516.47;4118373;28;20210;-54
2022/07/17 06:30:00;;;;;;;1.85;0.82;;;;;;;18.55;53.82;99522.84;4103485;28;20366;-55
2022/07/17 06:32:01;;;;;;;2.22;0.98;;;;;;;18.73;52.86;99527.81;4116505;28;20241;-54
2022/07/17 06:34:03;;;;;;;4.63;0.95;;;;;;;18.85;52.87;99519.22;4102445;28;20243;-54
2022/07/17 06:36:05;;;;;;;2.33;1.00;;;;;;;19.03;52.60;99526.94;4120808;28;20210;-54
2022/07/17 06:38:06;;;;;;;2.42;1.00;;;;;;;19.18;52.17;99518.63;4121194;28;20206;-54
2022/07/17 06:40:08;;;;;;;2.80;1.10;;;;;;;19.20;51.84;99521.97;4100831;28;20238;-54
2022/07/17 06:42:10;;;;;;;0.80;0.70;;;;;;;19.32;51.53;99525.28;4104266;28;20215;-54
2022/07/17 06:44:12;;;;;;;3.28;1.05;;;;;;;19.44;51.58;99523.03;4118264;28;20206;-55
2022/07/17 06:46:15;;;;;;;2.67;0.90;;;;;;;19.60;50.98;99527.41;4107848;28;20211;-55
2022/07/17 06:48:17;;;;;;;2.33;0.90;;;;;;;19.57;51.19;99522.41;4103856;28;20226;-55
2022/07/17 06:50:19;;;;;;;1.88;0.82;;;;;;;19.75;51.28;99530.09;4120068;28;20295;-55
2022/07/17 06:52:21;;;;;;;1.85;1.00;;;;;;;19.85;51.01;99518.97;4109582;28;20207;-55
2022/07/17 06:54:25;;;;;;;1.67;0.93;;;;;;;19.88;50.63;99510.03;4101564;28;20670;-55
2022/07/17 06:56:27;;;;;;;1.30;1.02;;;;;;;19.99;50.73;99509.69;4105640;28;20215;-55
2022/07/17 06:58:29;;;;;;;2.35;0.80;;;;;;;20.17;50.47;99505.47;4101911;28;20211;-54
2022/07/17 07:00:30;;;;;;;1.80;1.17;;;;;;;20.39;48.15;99509.44;4119189;28;20230;-54
2022/07/17 07:02:32;;;;;;;4.38;1.17;;;;;;;20.46;47.50;99498.00;4115124;28;20210;-54
2022/07/17 07:04:34;;;;;;;3.20;1.23;;;;;;;20.19;47.94;99508.78;4101039;28;20286;-55
2022/07/17 07:06:36;;;;;;;2.70;0.82;;;;;;;20.43;48.16;99509.69;4105904;28;20219;-54
2022/07/17 07:08:37;;;;;;;7.95;1.10;;;;;;;20.60;47.58;99515.69;4103705;28;20266;-54
2022/07/17 07:10:39;;;;;;;2.30;1.00;;;;;;;20.73;48.09;99509.47;4107847;28;20585;-55
2022/07/17 07:12:41;;;;;;;1.52;0.80;;;;;;;20.89;47.28;99508.22;4103407;28;20202;-54
2022/07/17 07:14:43;;;;;;;2.45;0.95;;;;;;;21.05;47.55;99507.78;4088399;28;20659;-54
2022/07/17 07:16:44;;;;;;;0.80;0.77;;;;;;;21.04;46.15;99508.09;4106002;28;20237;-54
2022/07/17 07:18:47;;;;;;;4.07;1.13;;;;;;;21.37;46.27;99509.97;4115645;28;20217;-54
2022/07/17 07:20:48;;;;;;;2.30;0.85;;;;;;;21.23;45.30;99509.03;4098425;28;20230;-54
2022/07/17 07:22:50;;;;;;;1.58;0.85;;;;;;;21.43;45.48;99517.16;4101955;28;20211;-54
2022/07/17 07:24:52;;;;;;;2.20;1.02;;;;;;;21.06;44.22;99515.03;4101373;28;20224;-54
2022/07/17 07:26:54;;;;;;;1.90;0.80;;;;;;;21.11;44.68;99508.59;4107009;28;20206;-54
2022/07/17 07:28:55;;;;;;;4.75;1.00;;;;;;;21.38;44.43;99511.63;4106235;28;20285;-55
2022/07/17 07:30:57;;;;;;;1.58;1.02;;;;;;;21.74;44.30;99510.09;4108677;28;20249;-54
2022/07/17 07:32:59;;;;;;;2.38;1.17;;;;;;;21.65;43.00;99507.09;4094104;28;20211;-54
2022/07/17 07:35:01;;;;;;;2.85;0.82;;;;;;;21.84;44.17;99504.41;4119468;28;20289;-53
2022/07/17 07:37:02;;;;;;;1.35;0.75;;;;;;;21.89;43.46;99507.09;4108727;28;20210;-53
2022/07/17 07:39:04;;;;;;;3.53;1.33;;;;;;;21.70;42.53;99509.06;4105020;28;20241;-53
2022/07/17 07:41:06;;;;;;;3.35;1.00;;;;;;;21.89;42.76;99512.66;4102989;28;20238;-54
2022/07/17 07:43:07;;;;;;;1.23;0.90;;;;;;;21.96;42.12;99510.34;4103564;28;20663;-54
2022/07/17 07:45:09;;;;;;;1.13;0.90;;;;;;;22.07;41.75;99509.09;4103005;28;20210;-54
2022/07/17 07:47:11;;;;;;;2.00;0.88;;;;;;;22.23;41.85;99514.13;4116827;28;20205;-53
2022/07/17 07:49:13;;;;;;;2.35;1.27;;;;;;;22.06;41.93;99516.63;4104500;28;20725;-53
2022/07/17 07:51:14;;;;;;;1.67;0.80;;;;;;;22.17;42.67;99514.53;4108823;28;20245;-54
2022/07/17 07:53:18;;;;;;;7.72;1.25;;;;;;;22.45;42.43;99510.78;4111083;28;20210;-53
2022/07/17 07:55:21;;;;;;;1.85;0.80;;;;;;;22.50;41.37;99507.91;4108366;28;20214;-53
2022/07/17 07:57:22;;;;;;;1.60;0.80;;;;;;;22.54;41.14;99514.53;4113667;28;20749;-53
2022/07/17 07:59:24;;;;;;;2.80;0.93;;;;;;;22.71;41.18;99510.06;4107050;28;20230;-53
2022/07/17 08:01:26;;;;;;;2.08;1.05;;;;;;;22.77;40.28;99520.00;4106422;28;20222;-53
2022/07/17 08:03:28;;;;;;;1.10;0.95;;;;;;;22.63;41.52;99518.31;4110356;28;20214;-54
2022/07/17 08:05:30;;;;;;;3.42;1.15;;;;;;;23.10;41.83;99523.63;4112706;28;20297;-53
2022/07/17 08:07:34;;;;;;;6.38;0.98;;;;;;;23.47;41.53;99524.34;4106432;28;20577;-54
2022/07/17 08:09:36;;;;;;;2.35;0.85;;;;;;;23.76;40.01;99526.84;4105178;28;20238;-54
2022/07/17 08:11:38;;;;;;;2.72;1.10;;;;;;;23.66;39.91;99524.25;4121510;28;20194;-54
2022/07/17 08:13:40;;;;;;;3.35;0.90;;;;;;;23.58;39.68;99513.78;4111731;28;20261;-53
2022/07/17 08:15:42;;;;;;;1.75;0.82;;;;;;;23.77;40.59;99518.97;4107113;28;20752;-54
2022/07/17 08:17:44;;;;;;;1.45;0.80;;;;;;;23.81;39.20;99514.38;4104253;28;20252;-53
2022/07/17 08:19:49;;;;;;;3.88;1.10;;;;;;;23.58;39.06;99513.78;4116226;28;20668;-53
2022/07/17 08:21:51;;;;;;;2.35;1.45;;;;;;;23.66;38.93;99510.25;4109215;28;20226;-54
2022/07/17 08:23:53;;;;;;;1.63;1.10;;;;;;;23.56;38.27;99511.28;4123230;28;20296;-54
2022/07/17 08:25:55;;;;;;;1.65;0.93;;;;;;;23.57;38.73;99523.31;4107475;28;20202;-53
2022/07/17 08:27:57;;;;;;;1.90;0.90;;;;;;;23.82;40.30;99515.22;4091139;28;20210;-54
2022/07/17 08:29:59;;;;;;;3.08;0.82;;;;;;;24.28;38.85;99525.13;4106219;28;20337;-53
2022/07/17 08:32:02;;;;;;;2.55;0.73;;;;;;;24.12;37.22;99521.00;4122048;28;20240;-54
2022/07/17 08:34:04;;;;;;;2.15;1.00;;;;;;;24.35;37.32;99514.34;4105418;28;20954;-53
2022/07/17 08:36:06;;;;;;;1.70;0.75;;;;;;;24.45;37.11;99505.69;4104273;28;20627;-54
2022/07/17 08:38:08;;;;;;;3.20;1.05;;;;;;;24.65;36.28;99508.03;4091983;28;20258;-54
2022/07/17 08:40:28;;;;;;;1.98;0.70;;;;;;;24.85;37.41;99501.91;4109152;28;20691;-54
2022/07/17 08:42:31;;;;;;;2.38;0.88;;;;;;;24.73;36.11;99512.84;4105050;28;20241;-53
2022/07/17 08:44:33;;;;;;;1.45;0.60;;;;;;;24.96;36.43;99514.53;4091152;28;20708;-54
2022/07/17 08:46:39;;;;;;;1.30;0.70;;;;;;;24.70;36.40;99516.31;4105542;28;20269;-53
2022/07/17 08:48:41;;;;;;;1.98;0.98;;;;;;;24.67;36.04;99519.72;4100716;28;20210;-54
2022/07/17 08:50:44;;;;;;;2.40;1.00;;;;;;;25.01;36.36;99520.00;4115527;28;20316;-53
2022/07/17 08:52:49;;;;;;;2.42;0.75;;;;;;;25.06;36.03;99514.25;4108249;28;20954;-54
2022/07/17 08:54:50;;;;;;;2.70;0.60;;;;;;;24.90;36.25;99515.78;4086274;28;20215;-54
2022/07/17 08:56:52;;;;;;;0.95;0.70;;;;;;;25.36;36.24;99521.03;4102459;28;20221;-54
2022/07/17 08:58:55;;;;;;;2.25;0.85;;;;;;;25.68;35.00;99520.69;4117790;28;20282;-54
2022/07/17 09:00:57;;;;;;;2.72;0.60;;;;;;;25.44;34.92;99525.84;4103641;28;20320;-54
2022/07/17 09:03:02;;;;;;;8.18;1.05;;;;;;;25.82;36.01;99511.03;4089028;28;20695;-53
2022/07/17 09:05:04;;;;;;;8.75;0.80;;;;;;;25.81;34.79;99509.38;4103598;28;20206;-53
2022/07/17 09:07:06;;;;;;;4.60;0.57;;;;;;;25.86;35.75;99502.78;4102145;28;20306;-53
2022/07/17 09:09:09;;;;;;;2.80;0.90;;;;;;;25.52;35.10;99497.88;4104200;28;20214;-53
2022/07/17 09:11:11;;;;;;;1.33;0.70;;;;;;;25.05;34.91;99483.75;4105099;28;20206;-54
2022/07/17 09:13:31;;;;;;;2.40;1.02;;;;;;;25.38;35.42;99485.94;4110358;28;20202;-53
2022/07/17 09:15:33;;;;;;;3.70;1.15;;;;;;;25.50;34.43;99480.53;4111713;28;20582;-53
2022/07/17 09:17:36;;;;;;;1.33;0.80;;;;;;;25.02;35.25;99482.44;4104996;28;20214;-53
2022/07/17 09:19:41;;;;;;;1.60;0.80;;;;;;;25.28;35.53;99483.44;4111468;28;20230;-53
2022/07/17 09:21:42;;;;;;;3.10;1.00;;;;;;;25.40;35.21;99485.63;4107446;28;20272;-54
2022/07/17 09:24:00;;;;;;;6.05;1.00;;;;;;;25.90;35.90;99472.94;4118197;28;20214;-53
2022/07/17 09:26:04;;;;;;;3.30;0.85;;;;;;;26.15;34.03;99472.16;4101808;28;20242;-54
2022/07/17 09:28:08;;;;;;;1.42;0.70;;;;;;;26.09;33.67;99476.28;4105126;28;20222;-53
2022/07/17 09:30:11;;;;;;;5.35;0.90;;;;;;;26.11;33.99;99476.75;4101157;28;20231;-53
2022/07/17 09:32:17;;;;;;;2.15;0.75;;;;;;;25.94;34.13;99469.13;4102934;28;20227;-54
2022/07/17 09:34:19;;;;;;;1.95;1.00;;;;;;;26.24;33.86;99462.59;4109160;28;20249;-54
2022/07/17 09:36:21;;;;;;;2.35;0.70;;;;;;;25.63;33.89;99474.00;4087419;29;20663;-53